Moku Pahu — WBWK — position and weather

sailwx.info

Track history (hours):
 
Tides and Currents Weather Stations Pressure Air Temp Water Temp Dewpoint Dewpoint Depression Visibility Wind Speed Wind Dir Waves Ship Positions

Moku Pahu

More information available from US FCC via Universal Licensing System and Coast Guard Vessel Documentation Center.

Last reported at 2014-Sep-02 23:28 UTC. Time now 2014-Sep-02 23:41 UTC.
Position N 38°03' W 122°13'.

Type: Ship. MMSI: 366857000.

Date/timePositionNaut miles runAvg speedWind from/ knotsBaromVisibWave heightAir tempDewpointWater temp
2014-Sep-02 23:28N 38°03' W 122°13'0 0.0
2014-Sep-02 22:32N 38°03' W 122°13'0 0.0
2014-Sep-02 21:34N 38°03' W 122°13'0 0.0
2014-Sep-02 20:33N 38°03' W 122°13'0 0.0
2014-Sep-02 19:33N 38°03' W 122°13'0 0.0
2014-Sep-02 18:34N 38°03' W 122°13'0 0.0
2014-Sep-02 17:33N 38°03' W 122°13'0 0.0
2014-Sep-02 16:33N 38°03' W 122°13'0 0.0
2014-Sep-02 14:33N 38°03' W 122°13'0 0.0
2014-Sep-02 13:33N 38°03' W 122°13'0 0.0
2014-Sep-02 12:33N 38°03' W 122°13'0 0.0
2014-Sep-02 11:34N 38°03' W 122°13'0 0.0
2014-Sep-02 10:34N 38°03' W 122°13'0 0.0
2014-Sep-02 09:33N 38°03' W 122°13'0 0.0
2014-Sep-02 08:33N 38°03' W 122°13'0 0.0
2014-Sep-02 07:34N 38°03' W 122°13'0 0.0
2014-Sep-02 06:33N 38°03' W 122°13'0 0.0
2014-Sep-02 05:34N 38°03' W 122°13'0 0.0
2014-Sep-02 04:33N 38°03' W 122°13'0 0.0
2014-Sep-02 03:33N 38°03' W 122°13'0 0.0
2014-Sep-02 02:33N 38°03' W 122°13'0 0.0
2014-Sep-02 01:33N 38°03' W 122°13'0 0.0
2014-Sep-02 00:33N 38°03' W 122°13'0 0.0
2014-Sep-01 23:33N 38°03' W 122°13'0 0.0
2014-Sep-01 22:32N 38°03' W 122°13'0 0.0
2014-Sep-01 21:33N 38°03' W 122°13'0 0.0
2014-Sep-01 20:33N 38°03' W 122°13'0 0.0
2014-Sep-01 19:32N 38°03' W 122°13'0 0.0
2014-Sep-01 18:33N 38°03' W 122°13'0 0.0
2014-Sep-01 17:29N 38°03' W 122°13'0 0.0
2014-Sep-01 16:24N 38°03' W 122°13'0 0.0
2014-Sep-01 15:14N 38°03' W 122°13'0 0.0
2014-Sep-01 14:33N 38°03' W 122°13'0 0.0
2014-Sep-01 13:33N 38°03' W 122°13'0 0.0
2014-Sep-01 12:33N 38°03' W 122°13'0 0.0
2014-Sep-01 11:32N 38°03' W 122°13'0 0.0
2014-Sep-01 10:34N 38°03' W 122°13'0 0.0
2014-Sep-01 09:33N 38°03' W 122°13'0 0.0
2014-Sep-01 08:26N 38°03' W 122°13'0 0.0
2014-Sep-01 07:33N 38°03' W 122°13'0 0.0
2014-Sep-01 06:33N 38°03' W 122°13'0 0.0
2014-Sep-01 05:33N 38°03' W 122°13'0 0.0
2014-Sep-01 04:33N 38°03' W 122°13'0 0.0
2014-Sep-01 03:33N 38°03' W 122°13'0 0.1
2014-Sep-01 02:33N 38°04' W 122°13'8 7.9
2014-Sep-01 01:33N 38°02' W 122°23'1010.4
2014-Sep-01 00:33N 37°51' W 122°25'1211.5
2014-Aug-31 23:33N 37°46' W 122°38'9 9.6
2014-Aug-31 22:34N 37°41' W 122°48'1010.2
2014-Aug-31 21:33N 37°35' W 122°58'1010.0
2014-Aug-31 20:33N 37°31' W 123°10'1010.1
2014-Aug-31 19:34N 37°27' W 123°21'1010.3
2014-Aug-31 18:33N 37°23' W 123°33'1 1.4
2014-Aug-31 17:34N 37°22' W 123°32'1111.1
2014-Aug-31 16:33N 37°16' W 123°44'1111.3
2014-Aug-31 15:33N 37°10' W 123°56'1111.4
2014-Aug-31 14:33N 37°05' W 124°09'1111.0
2014-Aug-31 13:34N 36°60' W 124°20'1110.7
2014-Aug-31 12:33N 36°54' W 124°32'1110.7
2014-Aug-31 11:33N 36°49' W 124°44'1310.8
2014-Aug-31 10:21N 36°43' W 124°58'1011.4
2014-Aug-31 09:31N 36°38' W 125°08'4811.9
2014-Aug-31 05:30N 36°16' W 126°01'1211.7
2014-Aug-31 04:29N 36°09' W 126°13'4711.2
2014-Aug-31 00:20N 35°50' W 127°05'3211.1
2014-Aug-30 21:27N 35°39' W 127°43'1011.2
2014-Aug-30 20:33N 35°36' W 127°54'1111.5
2014-Aug-30 19:33N 35°31' W 128°07'1211.5
2014-Aug-30 18:33N 35°28' W 128°21'1211.8
2014-Aug-30 17:33N 35°24' W 128°34'1211.7
2014-Aug-30 16:33N 35°20' W 128°48'1211.8
2014-Aug-30 15:33N 35°16' W 129°02'1312.1
2014-Aug-30 14:28N 35°11' W 129°17'4 4.6
2014-Aug-30 13:34N 35°12' W 129°12'6 6.2
2014-Aug-30 12:33N 35°11' W 129°19'1211.7
2014-Aug-30 11:33N 35°06' W 129°32'1211.6
2014-Aug-30 10:33N 35°01' W 129°45'1111.3
2014-Aug-30 09:33N 34°57' W 129°58'1111.0
2014-Aug-30 08:30N 34°54' W 130°11'1211.4
2014-Aug-30 07:30N 34°50' W 130°24'1511.3
2014-Aug-30 06:10N 34°44' W 130°41'711.6
2014-Aug-30 05:33N 34°42' W 130°49'5710.7
2014-Aug-30 00:17N 34°21' W 131°53'46 7.2
2014-Aug-29 18:00N 34°00' W 132°42'361 7.5 080 / 131017.210.8 2.022.218.9
2014-Aug-27 18:00N 31°30' W 139°12'161 6.7 050 / 201015.2 5.4 2.023.321.7
2014-Aug-26 18:00N 30°18' W 142°00'   050 / 161017.810.8 1.523.320.1
Track history (hours):
 
Tides and Currents Weather Stations Pressure Air Temp Water Temp Dewpoint Dewpoint Depression Visibility Wind Speed Wind Dir Waves Ship Positions

Moku Pahu

More information available from US FCC via Universal Licensing System and Coast Guard Vessel Documentation Center.

Last reported at 2014-Sep-02 23:28 UTC. Time now 2014-Sep-02 23:41 UTC.
Position N 38°03' W 122°13'.

Type: Ship. MMSI: 366857000.

Date/timePositionNaut miles runAvg speedWind from/ knotsBaromVisibWave heightAir tempDewpointWater temp
2014-Sep-02 23:28N 38°03' W 122°13'0 0.0
2014-Sep-02 22:32N 38°03' W 122°13'0 0.0
2014-Sep-02 21:34N 38°03' W 122°13'0 0.0
2014-Sep-02 20:33N 38°03' W 122°13'0 0.0
2014-Sep-02 19:33N 38°03' W 122°13'0 0.0
2014-Sep-02 18:34N 38°03' W 122°13'0 0.0
2014-Sep-02 17:33N 38°03' W 122°13'0 0.0
2014-Sep-02 16:33N 38°03' W 122°13'0 0.0
2014-Sep-02 14:33N 38°03' W 122°13'0 0.0
2014-Sep-02 13:33N 38°03' W 122°13'0 0.0
2014-Sep-02 12:33N 38°03' W 122°13'0 0.0
2014-Sep-02 11:34N 38°03' W 122°13'0 0.0
2014-Sep-02 10:34N 38°03' W 122°13'0 0.0
2014-Sep-02 09:33N 38°03' W 122°13'0 0.0
2014-Sep-02 08:33N 38°03' W 122°13'0 0.0
2014-Sep-02 07:34N 38°03' W 122°13'0 0.0
2014-Sep-02 06:33N 38°03' W 122°13'0 0.0
2014-Sep-02 05:34N 38°03' W 122°13'0 0.0
2014-Sep-02 04:33N 38°03' W 122°13'0 0.0
2014-Sep-02 03:33N 38°03' W 122°13'0 0.0
2014-Sep-02 02:33N 38°03' W 122°13'0 0.0
2014-Sep-02 01:33N 38°03' W 122°13'0 0.0
2014-Sep-02 00:33N 38°03' W 122°13'0 0.0
2014-Sep-01 23:33N 38°03' W 122°13'0 0.0
2014-Sep-01 22:32N 38°03' W 122°13'0 0.0
2014-Sep-01 21:33N 38°03' W 122°13'0 0.0
2014-Sep-01 20:33N 38°03' W 122°13'0 0.0
2014-Sep-01 19:32N 38°03' W 122°13'0 0.0
2014-Sep-01 18:33N 38°03' W 122°13'0 0.0
2014-Sep-01 17:29N 38°03' W 122°13'0 0.0
2014-Sep-01 16:24N 38°03' W 122°13'0 0.0
2014-Sep-01 15:14N 38°03' W 122°13'0 0.0
2014-Sep-01 14:33N 38°03' W 122°13'0 0.0
2014-Sep-01 13:33N 38°03' W 122°13'0 0.0
2014-Sep-01 12:33N 38°03' W 122°13'0 0.0
2014-Sep-01 11:32N 38°03' W 122°13'0 0.0
2014-Sep-01 10:34N 38°03' W 122°13'0 0.0
2014-Sep-01 09:33N 38°03' W 122°13'0 0.0
2014-Sep-01 08:26N 38°03' W 122°13'0 0.0
2014-Sep-01 07:33N 38°03' W 122°13'0 0.0
2014-Sep-01 06:33N 38°03' W 122°13'0 0.0
2014-Sep-01 05:33N 38°03' W 122°13'0 0.0
2014-Sep-01 04:33N 38°03' W 122°13'0 0.0
2014-Sep-01 03:33N 38°03' W 122°13'0 0.1
2014-Sep-01 02:33N 38°04' W 122°13'8 7.9
2014-Sep-01 01:33N 38°02' W 122°23'1010.4
2014-Sep-01 00:33N 37°51' W 122°25'1211.5
2014-Aug-31 23:33N 37°46' W 122°38'9 9.6
2014-Aug-31 22:34N 37°41' W 122°48'1010.2
2014-Aug-31 21:33N 37°35' W 122°58'1010.0
2014-Aug-31 20:33N 37°31' W 123°10'1010.1
2014-Aug-31 19:34N 37°27' W 123°21'1010.3
2014-Aug-31 18:33N 37°23' W 123°33'1 1.4
2014-Aug-31 17:34N 37°22' W 123°32'1111.1
2014-Aug-31 16:33N 37°16' W 123°44'1111.3
2014-Aug-31 15:33N 37°10' W 123°56'1111.4
2014-Aug-31 14:33N 37°05' W 124°09'1111.0
2014-Aug-31 13:34N 36°60' W 124°20'1110.7
2014-Aug-31 12:33N 36°54' W 124°32'1110.7
2014-Aug-31 11:33N 36°49' W 124°44'1310.8
2014-Aug-31 10:21N 36°43' W 124°58'1011.4
2014-Aug-31 09:31N 36°38' W 125°08'4811.9
2014-Aug-31 05:30N 36°16' W 126°01'1211.7
2014-Aug-31 04:29N 36°09' W 126°13'4711.2
2014-Aug-31 00:20N 35°50' W 127°05'3211.1
2014-Aug-30 21:27N 35°39' W 127°43'1011.2
2014-Aug-30 20:33N 35°36' W 127°54'1111.5
2014-Aug-30 19:33N 35°31' W 128°07'1211.5
2014-Aug-30 18:33N 35°28' W 128°21'1211.8
2014-Aug-30 17:33N 35°24' W 128°34'1211.7
2014-Aug-30 16:33N 35°20' W 128°48'1211.8
2014-Aug-30 15:33N 35°16' W 129°02'1312.1
2014-Aug-30 14:28N 35°11' W 129°17'4 4.6
2014-Aug-30 13:34N 35°12' W 129°12'6 6.2
2014-Aug-30 12:33N 35°11' W 129°19'1211.7
2014-Aug-30 11:33N 35°06' W 129°32'1211.6
2014-Aug-30 10:33N 35°01' W 129°45'1111.3
2014-Aug-30 09:33N 34°57' W 129°58'1111.0
2014-Aug-30 08:30N 34°54' W 130°11'1211.4
2014-Aug-30 07:30N 34°50' W 130°24'1511.3
2014-Aug-30 06:10N 34°44' W 130°41'711.6
2014-Aug-30 05:33N 34°42' W 130°49'5710.7
2014-Aug-30 00:17N 34°21' W 131°53'46 7.2
2014-Aug-29 18:00N 34°00' W 132°42'361 7.5 080 / 131017.210.8 2.022.218.9
2014-Aug-27 18:00N 31°30' W 139°12'161 6.7 050 / 201015.2 5.4 2.023.321.7
2014-Aug-26 18:00N 30°18' W 142°00'   050 / 161017.810.8 1.523.320.1

Dump ship's entire track history